createdAt,value
2018-08-28T00:02:22.619Z,64.53
2018-08-28T00:04:52.021Z,64.13
2018-08-28T00:07:21.253Z,63.22
2018-08-28T00:09:50.606Z,63.80
2018-08-28T00:12:20.534Z,64.08
2018-08-28T00:14:49.934Z,64.94
2018-08-28T00:17:19.439Z,64.16
2018-08-28T00:19:48.689Z,64.47
2018-08-28T00:22:18.163Z,64.97
2018-08-28T00:24:47.731Z,64.71
2018-08-28T00:27:17.366Z,64.07
2018-08-28T00:29:46.694Z,65.27
2018-08-28T00:32:16.524Z,64.98
2018-08-28T00:34:46.300Z,64.85
2018-08-28T00:37:15.680Z,64.30
2018-08-28T00:39:45.184Z,63.65
2018-08-28T00:42:14.690Z,64.31
2018-08-28T00:44:44.194Z,64.18
2018-08-28T00:47:13.595Z,63.23
2018-08-28T00:49:42.996Z,63.23
2018-08-28T00:52:12.407Z,61.98
2018-08-28T00:54:41.903Z,61.77
2018-08-28T00:57:11.307Z,61.72
2018-08-28T00:59:40.629Z,61.39
2018-08-28T01:02:10.009Z,61.59
2018-08-28T01:04:39.510Z,61.33
2018-08-28T01:07:09.039Z,60.99
2018-08-28T01:09:38.520Z,61.79
2018-08-28T01:12:07.847Z,61.18
2018-08-28T01:14:37.359Z,61.62
2018-08-28T01:17:06.830Z,60.80
2018-08-28T01:19:36.355Z,61.25
2018-08-28T01:22:06.144Z,60.20
2018-08-28T01:24:35.668Z,59.63
2018-08-28T01:27:05.152Z,59.84
2018-08-28T01:29:34.556Z,59.96
2018-08-28T01:32:04.163Z,58.98
2018-08-28T01:34:33.636Z,59.27
2018-08-28T01:37:03.088Z,59.34
2018-08-28T01:39:32.474Z,59.71
2018-08-28T01:42:01.973Z,58.97
2018-08-28T01:44:31.477Z,58.62
2018-08-28T01:47:01.141Z,58.77
2018-08-28T01:49:30.408Z,58.39
2018-08-28T01:51:59.689Z,58.42
2018-08-28T01:54:29.088Z,58.39
2018-08-28T01:56:58.557Z,58.58
2018-08-28T01:59:27.993Z,58.28
2018-08-28T02:01:57.496Z,57.70
2018-08-28T02:04:26.751Z,57.89
2018-08-28T02:06:56.097Z,57.52
2018-08-28T02:09:25.503Z,57.32
2018-08-28T02:11:54.763Z,56.87
2018-08-28T02:14:24.199Z,57.13
2018-08-28T02:16:53.601Z,57.42
2018-08-28T02:19:22.871Z,57.70
2018-08-28T02:21:52.102Z,57.60
2018-08-28T02:24:21.498Z,57.80
2018-08-28T02:26:51.079Z,57.40
2018-08-28T02:29:20.508Z,57.21
2018-08-28T02:31:49.910Z,57.46
2018-08-28T02:34:19.312Z,57.48
2018-08-28T02:36:48.919Z,57.77
2018-08-28T02:39:18.223Z,57.83
2018-08-28T02:41:47.462Z,58.14
2018-08-28T02:44:17.022Z,57.97
2018-08-28T02:46:46.224Z,58.00
2018-08-28T02:49:15.518Z,58.23
2018-08-28T02:51:44.817Z,58.77
2018-08-28T02:54:14.426Z,57.95
2018-08-28T02:56:43.728Z,58.00
2018-08-28T02:59:13.231Z,57.57
2018-08-28T03:01:42.411Z,57.76
2018-08-28T03:04:11.828Z,57.82
2018-08-28T03:06:41.290Z,57.86
2018-08-28T03:09:10.511Z,57.31
2018-08-28T03:11:39.967Z,57.80
2018-08-28T03:14:09.512Z,57.95
2018-08-28T03:16:39.247Z,57.02
2018-08-28T03:19:08.982Z,57.72
2018-08-28T03:21:38.471Z,57.53
2018-08-28T03:24:07.851Z,57.33
2018-08-28T03:26:37.367Z,57.15
2018-08-28T03:29:06.800Z,57.30
2018-08-28T03:31:36.274Z,57.01
2018-08-28T03:34:05.886Z,57.13
2018-08-28T03:36:35.486Z,57.11
2018-08-28T03:39:05.525Z,57.07
2018-08-28T03:41:35.212Z,57.63
2018-08-28T03:44:04.716Z,57.64
2018-08-28T03:46:34.323Z,58.02
2018-08-28T03:49:04.040Z,58.20
2018-08-28T03:51:33.644Z,58.02
2018-08-28T03:54:04.160Z,57.67
2018-08-28T03:56:35.615Z,57.47
2018-08-28T03:59:05.018Z,57.61
2018-08-28T04:01:34.421Z,57.78
2018-08-28T04:04:03.760Z,58.03
2018-08-28T04:06:33.327Z,57.64
2018-08-28T04:09:03.140Z,57.79
2018-08-28T04:11:32.643Z,57.76
2018-08-28T04:14:02.008Z,58.43
2018-08-28T04:16:31.516Z,58.78
2018-08-28T04:19:00.854Z,59.07
2018-08-28T04:21:33.324Z,59.32
2018-08-28T04:24:02.624Z,59.44
2018-08-28T04:26:32.027Z,59.80
2018-08-28T04:29:01.431Z,60.06
2018-08-28T04:31:30.933Z,60.50
2018-08-28T04:34:00.340Z,60.80
2018-08-28T04:36:29.551Z,60.71
2018-08-28T04:38:58.887Z,60.67
2018-08-28T04:41:28.339Z,60.61
2018-08-28T04:43:57.896Z,60.58
2018-08-28T04:46:27.348Z,60.46
2018-08-28T04:48:56.606Z,60.60
2018-08-28T04:51:25.945Z,60.51
2018-08-28T04:53:55.349Z,60.83
2018-08-28T04:56:24.679Z,60.70
2018-08-28T04:58:54.055Z,60.96
2018-08-28T05:01:23.654Z,61.00
2018-08-28T05:03:53.054Z,61.09
2018-08-28T05:06:23.586Z,61.12
2018-08-28T05:08:53.024Z,61.72
2018-08-28T05:11:22.392Z,61.11
2018-08-28T05:13:53.891Z,60.75
2018-08-28T05:16:23.343Z,60.88
2018-08-28T05:18:52.747Z,60.94
2018-08-28T05:21:22.148Z,60.98
2018-08-28T05:23:52.630Z,61.55
2018-08-28T05:26:21.897Z,61.29
2018-08-28T05:28:51.371Z,61.37
2018-08-28T05:31:20.982Z,61.10
2018-08-28T05:33:50.397Z,60.55
2018-08-28T05:36:20.706Z,60.81
2018-08-28T05:38:50.114Z,60.41
2018-08-28T05:41:19.718Z,61.05
2018-08-28T05:43:49.119Z,61.29
2018-08-28T05:46:18.876Z,61.18
2018-08-28T05:48:48.230Z,60.46
2018-08-28T05:51:17.631Z,60.39
2018-08-28T05:53:47.033Z,59.86
2018-08-28T05:56:16.590Z,60.13
2018-08-28T05:58:46.006Z,60.27
2018-08-28T06:01:15.447Z,60.20
2018-08-28T06:03:44.845Z,60.22
2018-08-28T06:06:14.145Z,60.55
2018-08-28T06:08:43.551Z,59.54
2018-08-28T06:11:13.371Z,59.31
2018-08-28T06:13:42.610Z,58.97
2018-08-28T06:16:11.833Z,58.61
2018-08-28T06:18:41.075Z,59.27
2018-08-28T06:21:10.366Z,58.65
2018-08-28T06:23:39.650Z,58.53
2018-08-28T06:26:08.881Z,58.62
2018-08-28T06:28:38.352Z,58.46
2018-08-28T06:31:07.755Z,57.71
2018-08-28T06:33:43.608Z,57.03
2018-08-28T06:36:13.116Z,57.00
2018-08-28T06:38:42.515Z,56.04
2018-08-28T06:41:11.858Z,55.64
2018-08-28T06:43:47.682Z,56.02
2018-08-28T06:46:17.172Z,57.01
2018-08-28T06:48:46.573Z,56.02
2018-08-28T06:51:15.975Z,54.95
2018-08-28T06:53:45.377Z,55.05
2018-08-28T06:56:14.669Z,55.32
2018-08-28T06:58:44.179Z,55.59
2018-08-28T07:01:13.583Z,55.86
2018-08-28T07:03:43.013Z,56.52
2018-08-28T07:06:12.445Z,55.40
2018-08-28T07:08:41.789Z,55.06
2018-08-28T07:11:11.299Z,54.71
2018-08-28T07:13:40.744Z,54.88
2018-08-28T07:16:10.098Z,53.75
2018-08-28T07:18:39.329Z,53.36
2018-08-28T07:21:08.593Z,52.43
2018-08-28T07:23:37.997Z,52.46
2018-08-28T07:26:07.445Z,52.75
2018-08-28T07:28:36.901Z,53.63
2018-08-28T07:31:06.406Z,52.95
2018-08-28T07:33:35.639Z,52.70
2018-08-28T07:36:04.827Z,52.17
2018-08-28T07:38:34.048Z,51.18
2018-08-28T07:41:03.399Z,51.51
2018-08-28T07:43:32.703Z,51.84
2018-08-28T07:46:02.007Z,51.20
2018-08-28T07:48:31.485Z,50.83
2018-08-28T07:51:00.904Z,50.18
2018-08-28T07:53:30.307Z,51.69
2018-08-28T07:55:59.492Z,51.37
2018-08-28T07:58:28.803Z,50.66
2018-08-28T08:00:58.204Z,49.94
2018-08-28T08:03:27.607Z,51.03
2018-08-28T08:05:57.114Z,51.25
2018-08-28T08:08:26.514Z,51.15
2018-08-28T08:10:56.018Z,49.87
2018-08-28T08:13:25.518Z,50.06
2018-08-28T08:15:54.978Z,51.03
2018-08-28T08:18:24.428Z,49.09
2018-08-28T08:20:53.838Z,47.87
2018-08-28T08:23:23.176Z,47.98
2018-08-28T08:25:52.471Z,46.43
2018-08-28T08:28:21.966Z,46.32
2018-08-28T08:30:51.542Z,47.19
2018-08-28T08:33:20.941Z,47.57
2018-08-28T08:35:50.347Z,47.44
2018-08-28T08:38:19.825Z,46.20
2018-08-28T08:40:49.454Z,46.20
2018-08-28T08:43:18.856Z,46.87
2018-08-28T08:45:48.426Z,46.62
2018-08-28T08:48:17.866Z,44.77
2018-08-28T08:50:47.457Z,44.73
2018-08-28T08:53:16.637Z,45.42
2018-08-28T08:55:46.070Z,45.36
2018-08-28T08:58:15.474Z,44.63
2018-08-28T09:00:44.671Z,44.74
2018-08-28T09:03:13.941Z,43.22
2018-08-28T09:05:43.460Z,44.39
2018-08-28T09:08:12.877Z,42.27
2018-08-28T09:10:42.380Z,42.46
2018-08-28T09:13:12.459Z,42.57
2018-08-28T09:15:41.654Z,41.02
2018-08-28T09:18:10.904Z,41.27
2018-08-28T09:20:40.294Z,40.92
2018-08-28T09:23:09.800Z,40.24
2018-08-28T09:25:39.201Z,37.98
2018-08-28T09:28:08.656Z,37.91
2018-08-28T09:30:38.112Z,38.85
2018-08-28T09:33:07.509Z,38.25
2018-08-28T09:35:36.913Z,37.04
2018-08-28T09:38:06.170Z,35.93
2018-08-28T09:40:35.410Z,37.27
2018-08-28T09:43:04.815Z,37.75
2018-08-28T09:45:34.220Z,39.06
2018-08-28T09:48:03.787Z,39.79
2018-08-28T09:50:33.064Z,39.67
2018-08-28T09:53:02.422Z,40.23
2018-08-28T09:55:31.923Z,40.47
2018-08-28T09:58:01.148Z,40.73
2018-08-28T10:00:30.511Z,39.48
2018-08-28T10:02:59.924Z,39.99
2018-08-28T10:05:29.223Z,39.99
2018-08-28T10:07:58.619Z,38.87
2018-08-28T10:10:27.927Z,36.94
2018-08-28T10:12:57.140Z,37.28
2018-08-28T10:15:26.368Z,37.33
2018-08-28T10:17:55.720Z,36.81
2018-08-28T10:20:24.954Z,36.87
2018-08-28T10:22:54.393Z,38.01
2018-08-28T10:25:23.915Z,35.38
2018-08-28T10:27:53.227Z,34.93
2018-08-28T10:30:22.740Z,35.18
2018-08-28T10:32:51.937Z,34.84
2018-08-28T10:35:21.433Z,36.10
2018-08-28T10:37:50.851Z,32.93
2018-08-28T10:40:20.678Z,34.03
2018-08-28T10:42:50.155Z,33.77
2018-08-28T10:45:19.655Z,33.70
2018-08-28T10:47:48.851Z,33.72
2018-08-28T10:50:18.254Z,33.09
2018-08-28T10:52:47.527Z,33.02
2018-08-28T10:55:16.786Z,34.32
2018-08-28T10:57:46.256Z,32.98
2018-08-28T11:00:15.494Z,32.18
2018-08-28T11:02:45.039Z,31.20
2018-08-28T11:05:14.463Z,30.29
2018-08-28T11:07:43.866Z,30.43
2018-08-28T11:10:13.167Z,30.53
2018-08-28T11:12:42.563Z,29.56
2018-08-28T11:15:11.930Z,30.31
2018-08-28T11:17:41.367Z,29.29
2018-08-28T11:20:10.874Z,29.48
2018-08-28T11:22:40.175Z,28.33
2018-08-28T11:25:10.064Z,27.62
2018-08-28T11:27:39.698Z,28.29
2018-08-28T11:30:09.203Z,28.52
2018-08-28T11:32:38.841Z,29.05
2018-08-28T11:35:08.310Z,28.43
2018-08-28T11:37:37.813Z,29.86
2018-08-28T11:40:07.420Z,30.17
2018-08-28T11:42:36.824Z,31.06
2018-08-28T11:45:06.537Z,30.05
2018-08-28T11:47:36.016Z,30.47
2018-08-28T11:50:05.540Z,30.58
2018-08-28T11:52:34.848Z,30.69
2018-08-28T11:55:04.138Z,29.87
2018-08-28T11:57:33.360Z,28.91
2018-08-28T12:00:02.841Z,28.00
2018-08-28T12:02:32.145Z,27.88
2018-08-28T12:05:01.456Z,27.04
2018-08-28T12:07:30.670Z,28.40
2018-08-28T12:10:00.143Z,26.92
2018-08-28T12:12:29.748Z,27.75
2018-08-28T12:14:59.024Z,27.37
2018-08-28T12:17:28.283Z,27.72
2018-08-28T12:19:57.751Z,27.91
2018-08-28T12:22:27.048Z,26.88
2018-08-28T12:24:56.450Z,26.68
2018-08-28T12:27:25.679Z,27.29
2018-08-28T12:29:55.358Z,27.73
2018-08-28T12:32:24.890Z,26.43
2018-08-28T12:34:54.120Z,26.31
2018-08-28T12:37:23.406Z,25.26
2018-08-28T12:39:52.763Z,25.82
2018-08-28T12:42:22.367Z,27.11
2018-08-28T12:44:51.795Z,25.87
2018-08-28T12:47:21.006Z,26.67
2018-08-28T12:49:50.231Z,26.37
2018-08-28T12:52:19.564Z,25.91
2018-08-28T12:54:48.907Z,25.94
2018-08-28T12:57:18.575Z,26.09
2018-08-28T12:59:48.080Z,25.85
2018-08-28T13:02:17.410Z,25.46
2018-08-28T13:04:46.816Z,25.35
2018-08-28T13:07:16.256Z,25.67
2018-08-28T13:09:45.455Z,24.87
2018-08-28T13:12:14.745Z,24.92
2018-08-28T13:14:44.316Z,24.60
2018-08-28T13:17:13.427Z,24.55
2018-08-28T13:19:42.886Z,24.94
2018-08-28T13:22:12.595Z,25.24
2018-08-28T13:24:41.997Z,25.83
2018-08-28T13:27:11.402Z,26.24
2018-08-28T13:29:40.922Z,25.23
2018-08-28T13:32:10.315Z,25.67
2018-08-28T13:34:40.842Z,25.25
2018-08-28T13:37:10.235Z,26.35
2018-08-28T13:39:39.739Z,25.57
2018-08-28T13:42:09.028Z,26.06
2018-08-28T13:44:38.447Z,26.86
2018-08-28T13:47:07.899Z,26.85
2018-08-28T13:49:37.247Z,27.56
2018-08-28T13:52:06.650Z,27.77
2018-08-28T13:54:36.156Z,27.92
2018-08-28T13:57:05.659Z,28.08
2018-08-28T13:59:35.163Z,28.29
2018-08-28T14:02:04.730Z,27.86
2018-08-28T14:04:34.320Z,27.16
2018-08-28T14:07:03.675Z,27.75
2018-08-28T14:09:33.079Z,27.27
2018-08-28T14:12:02.480Z,26.92
2018-08-28T14:14:31.883Z,26.58
2018-08-28T14:17:01.389Z,26.56
2018-08-28T14:19:30.672Z,26.39
2018-08-28T14:22:00.092Z,27.11
2018-08-28T14:24:29.389Z,26.24
2018-08-28T14:26:58.734Z,26.26
2018-08-28T14:29:28.191Z,26.08
2018-08-28T14:31:57.591Z,25.73
2018-08-28T14:34:26.996Z,26.67
2018-08-28T14:36:56.286Z,25.83
2018-08-28T14:39:25.798Z,25.51
2018-08-28T14:41:55.046Z,25.12
2018-08-28T14:44:24.410Z,25.31
2018-08-28T14:46:58.509Z,25.85
2018-08-28T14:49:27.911Z,26.40
2018-08-28T14:51:57.414Z,26.68
2018-08-28T14:54:26.820Z,27.13
2018-08-28T14:56:56.117Z,26.77
2018-08-28T14:59:25.422Z,26.38
2018-08-28T15:01:55.023Z,27.85
2018-08-28T15:04:24.324Z,27.94
2018-08-28T15:06:53.842Z,28.27
2018-08-28T15:09:23.231Z,27.55
2018-08-28T15:11:52.627Z,27.03
2018-08-28T15:14:22.042Z,27.23
2018-08-28T15:16:51.333Z,27.79
2018-08-28T15:19:20.579Z,27.44
2018-08-28T15:21:49.933Z,28.41
2018-08-28T15:24:19.335Z,28.53
2018-08-28T15:26:49.559Z,29.09
2018-08-28T15:29:19.061Z,28.12
2018-08-28T15:31:48.299Z,28.01
2018-08-28T15:34:17.730Z,27.20
2018-08-28T15:36:47.164Z,27.50
2018-08-28T15:39:16.566Z,28.77
2018-08-28T15:41:45.865Z,28.10
2018-08-28T15:44:15.131Z,28.39
2018-08-28T15:46:44.466Z,27.92
2018-08-28T15:49:13.866Z,28.88
2018-08-28T15:51:43.407Z,28.45
2018-08-28T15:54:13.286Z,28.30
2018-08-28T15:56:42.688Z,28.56
2018-08-28T15:59:12.091Z,27.75
2018-08-28T16:01:41.493Z,28.37
2018-08-28T16:04:15.158Z,28.15
2018-08-28T16:06:45.449Z,28.61
2018-08-28T16:09:15.034Z,28.05
2018-08-28T16:11:44.323Z,27.89
2018-08-28T16:14:14.442Z,27.65
2018-08-28T16:16:44.530Z,28.76
2018-08-28T16:19:13.863Z,28.14
2018-08-28T16:21:46.348Z,28.64
2018-08-28T16:24:17.801Z,28.94
2018-08-28T16:26:47.898Z,28.73
2018-08-28T16:29:17.277Z,27.97
2018-08-28T16:31:46.603Z,28.68
2018-08-28T16:34:16.522Z,28.95
2018-08-28T16:36:45.921Z,29.85
2018-08-28T16:39:15.532Z,29.68
2018-08-28T16:41:45.113Z,29.02
2018-08-28T16:44:14.638Z,29.62
2018-08-28T16:46:44.059Z,29.44
2018-08-28T16:49:13.445Z,29.38
2018-08-28T16:51:42.951Z,30.37
2018-08-28T16:54:12.350Z,30.35
2018-08-28T16:56:41.655Z,30.05
2018-08-28T16:59:10.998Z,30.87
2018-08-28T17:01:40.433Z,30.48
2018-08-28T17:04:09.856Z,30.45
2018-08-28T17:06:39.362Z,31.09
2018-08-28T17:09:08.866Z,30.79
2018-08-28T17:11:38.275Z,31.00
2018-08-28T17:14:07.775Z,31.07
2018-08-28T17:16:37.173Z,31.94
2018-08-28T17:19:06.703Z,32.13
2018-08-28T17:21:36.181Z,31.97
2018-08-28T17:24:05.629Z,31.36
2018-08-28T17:26:35.041Z,31.66
2018-08-28T17:29:04.591Z,32.55
2018-08-28T17:31:33.892Z,32.32
2018-08-28T17:34:03.397Z,32.32
2018-08-28T17:36:32.593Z,32.36
2018-08-28T17:39:02.008Z,33.24
2018-08-28T17:41:31.501Z,32.72
2018-08-28T17:44:00.901Z,33.52
2018-08-28T17:46:30.409Z,33.01
2018-08-28T17:48:59.924Z,32.81
2018-08-28T17:51:29.314Z,32.96
2018-08-28T17:53:58.716Z,33.89
2018-08-28T17:56:28.119Z,33.87
2018-08-28T17:58:57.724Z,34.08
2018-08-28T18:01:27.209Z,34.31
2018-08-28T18:03:56.684Z,34.56
2018-08-28T18:06:26.034Z,35.02
2018-08-28T18:08:55.436Z,35.25
2018-08-28T18:11:24.839Z,34.74
2018-08-28T18:13:54.343Z,35.17
2018-08-28T18:16:23.803Z,35.18
2018-08-28T18:18:53.216Z,36.03
2018-08-28T18:21:22.445Z,36.13
2018-08-28T18:23:51.849Z,36.15
2018-08-28T18:26:21.154Z,36.34
2018-08-28T18:28:50.562Z,36.33
2018-08-28T18:31:20.770Z,37.21
2018-08-28T18:33:50.262Z,37.37
2018-08-28T18:36:22.158Z,37.28
2018-08-28T18:38:51.538Z,36.97
2018-08-28T18:41:21.009Z,37.80
2018-08-28T18:43:50.663Z,37.88
2018-08-28T18:46:19.947Z,36.92
2018-08-28T18:48:49.350Z,36.49
2018-08-28T18:51:18.753Z,37.43
2018-08-28T18:53:48.010Z,38.01
2018-08-28T18:56:17.417Z,39.50
2018-08-28T18:58:46.857Z,40.72
2018-08-28T19:01:16.319Z,41.44
2018-08-28T19:03:45.763Z,41.11
2018-08-28T19:06:15.062Z,41.56
2018-08-28T19:08:53.141Z,41.61
2018-08-28T19:11:34.145Z,41.94
2018-08-28T19:14:03.648Z,41.57
2018-08-28T19:16:33.150Z,41.65
2018-08-28T19:19:02.558Z,42.52
2018-08-28T19:21:32.054Z,42.41
2018-08-28T19:24:01.563Z,40.71
2018-08-28T19:26:30.883Z,40.30
2018-08-28T19:29:00.270Z,40.44
2018-08-28T19:31:29.667Z,40.37
2018-08-28T19:33:59.170Z,40.43
2018-08-28T19:36:28.676Z,40.43
2018-08-28T19:38:58.078Z,40.72
2018-08-28T19:41:27.477Z,41.40
2018-08-28T19:43:56.879Z,41.52
2018-08-28T19:46:26.285Z,41.29
2018-08-28T19:48:55.684Z,41.47
2018-08-28T19:51:25.319Z,41.88
2018-08-28T19:53:55.002Z,41.96
2018-08-28T19:56:31.060Z,42.40
2018-08-28T19:59:00.567Z,42.04
2018-08-28T20:01:29.966Z,41.49
2018-08-28T20:03:59.415Z,41.21
2018-08-28T20:06:28.870Z,41.73
2018-08-28T20:08:58.272Z,41.54
2018-08-28T20:11:27.777Z,42.96
2018-08-28T20:13:57.283Z,42.96
2018-08-28T20:16:26.685Z,43.52
2018-08-28T20:18:56.087Z,43.57
2018-08-28T20:21:25.489Z,43.20
2018-08-28T20:23:54.792Z,43.80
2018-08-28T20:26:24.135Z,43.52
2018-08-28T20:28:53.565Z,43.57
2018-08-28T20:31:23.058Z,43.37
2018-08-28T20:33:52.348Z,43.48
2018-08-28T20:36:21.797Z,43.06
2018-08-28T20:38:51.197Z,43.31
2018-08-28T20:41:20.415Z,43.00
2018-08-28T20:43:49.798Z,42.64
2018-08-28T20:46:19.090Z,42.59
2018-08-28T20:48:48.371Z,42.78
2018-08-28T20:51:17.696Z,42.98
2018-08-28T20:53:47.190Z,43.05
2018-08-28T20:56:16.421Z,42.59
2018-08-28T20:58:45.961Z,42.69
2018-08-28T21:01:15.303Z,42.86
2018-08-28T21:03:44.604Z,43.47
2018-08-28T21:06:13.961Z,43.83
2018-08-28T21:08:43.409Z,44.06
2018-08-28T21:11:12.972Z,43.94
2018-08-28T21:13:42.725Z,44.01
2018-08-28T21:16:12.052Z,44.14
2018-08-28T21:18:41.428Z,44.67
2018-08-28T21:21:11.083Z,44.98
2018-08-28T21:23:40.538Z,45.56
2018-08-28T21:26:10.251Z,45.71
2018-08-28T21:28:39.647Z,46.08
2018-08-28T21:31:09.153Z,46.36
2018-08-28T21:33:38.375Z,45.99
2018-08-28T21:36:07.751Z,45.92
2018-08-28T21:38:37.255Z,46.31
2018-08-28T21:41:06.555Z,46.48
2018-08-28T21:43:36.470Z,46.01
2018-08-28T21:46:05.875Z,45.70
2018-08-28T21:48:35.212Z,46.14
2018-08-28T21:51:04.678Z,46.01
2018-08-28T21:53:33.942Z,46.64
2018-08-28T21:56:03.581Z,46.74
2018-08-28T21:58:32.983Z,46.42
2018-08-28T22:01:07.608Z,46.06
2018-08-28T22:03:38.555Z,46.26
2018-08-28T22:06:12.228Z,46.99
2018-08-28T22:08:41.651Z,47.25
2018-08-28T22:11:11.052Z,47.07
2018-08-28T22:13:40.761Z,46.85
2018-08-28T22:16:10.164Z,47.00
2018-08-28T22:18:39.874Z,46.96
2018-08-28T22:21:09.091Z,47.07
2018-08-28T22:23:38.474Z,47.40
2018-08-28T22:26:07.720Z,47.17
2018-08-28T22:28:37.068Z,47.36
2018-08-28T22:31:06.716Z,47.65
2018-08-28T22:33:35.931Z,47.65
2018-08-28T22:36:05.220Z,47.29
2018-08-28T22:38:34.580Z,47.34
2018-08-28T22:41:03.835Z,47.69
2018-08-28T22:43:33.095Z,48.31
2018-08-28T22:46:02.425Z,48.55
2018-08-28T22:48:31.700Z,48.15
2018-08-28T22:51:01.078Z,48.23
2018-08-28T22:53:30.380Z,48.52
2018-08-28T22:55:59.885Z,48.70
2018-08-28T22:58:29.282Z,49.01
2018-08-28T23:00:58.684Z,49.94
2018-08-28T23:03:28.088Z,49.66
2018-08-28T23:05:57.373Z,49.81
2018-08-28T23:08:33.546Z,50.31
2018-08-28T23:11:02.947Z,49.78
2018-08-28T23:13:32.183Z,49.24
2018-08-28T23:16:01.429Z,49.61
2018-08-28T23:18:30.767Z,49.62
2018-08-28T23:21:00.252Z,49.43
2018-08-28T23:23:29.504Z,50.01
2018-08-28T23:25:58.952Z,50.67
2018-08-28T23:28:28.191Z,51.61
2018-08-28T23:30:57.549Z,51.86
2018-08-28T23:33:27.260Z,51.48
2018-08-28T23:35:56.660Z,50.94
2018-08-28T23:38:25.903Z,51.50
2018-08-28T23:40:55.123Z,52.33
2018-08-28T23:43:24.560Z,51.92
2018-08-28T23:45:53.959Z,51.07
2018-08-28T23:48:23.568Z,51.06
2018-08-28T23:50:52.973Z,50.91
2018-08-28T23:53:22.272Z,51.88
2018-08-28T23:55:51.673Z,52.88
2018-08-28T23:58:20.938Z,53.70
